sensor_id;sensor_type;location;lat;lon;timestamp;P1;durP1;ratioP1;P2;durP2;ratioP2
52354;SDS011;38286;51.156;17.038;2022-09-03T00:01:45;4.63;;;1.77;;
52354;SDS011;38286;51.156;17.038;2022-09-03T00:07:25;2.97;;;1.60;;
52354;SDS011;38286;51.156;17.038;2022-09-03T00:09:59;2.63;;;1.40;;
52354;SDS011;38286;51.156;17.038;2022-09-03T00:12:30;2.45;;;1.40;;
52354;SDS011;38286;51.156;17.038;2022-09-03T00:15:05;2.65;;;1.65;;
52354;SDS011;38286;51.156;17.038;2022-09-03T00:17:45;4.05;;;1.65;;
52354;SDS011;38286;51.156;17.038;2022-09-03T00:20:33;3.63;;;1.60;;
52354;SDS011;38286;51.156;17.038;2022-09-03T00:23:04;3.00;;;1.67;;
52354;SDS011;38286;51.156;17.038;2022-09-03T00:25:34;3.83;;;1.40;;
52354;SDS011;38286;51.156;17.038;2022-09-03T00:28:04;3.22;;;1.30;;
52354;SDS011;38286;51.156;17.038;2022-09-03T00:30:35;4.18;;;1.58;;
52354;SDS011;38286;51.156;17.038;2022-09-03T00:33:11;2.92;;;1.58;;
52354;SDS011;38286;51.156;17.038;2022-09-03T00:35:42;3.35;;;1.65;;
52354;SDS011;38286;51.156;17.038;2022-09-03T00:38:12;4.30;;;1.25;;
52354;SDS011;38286;51.156;17.038;2022-09-03T00:40:55;2.05;;;1.40;;
52354;SDS011;38286;51.156;17.038;2022-09-03T00:46:25;3.80;;;1.65;;
52354;SDS011;38286;51.156;17.038;2022-09-03T00:49:28;2.58;;;1.58;;
52354;SDS011;38286;51.156;17.038;2022-09-03T01:02:30;3.33;;;1.20;;
52354;SDS011;38286;51.156;17.038;2022-09-03T01:08:16;1.88;;;1.30;;
52354;SDS011;38286;51.156;17.038;2022-09-03T01:10:58;4.80;;;1.40;;
52354;SDS011;38286;51.156;17.038;2022-09-03T01:13:40;2.97;;;1.55;;
52354;SDS011;38286;51.156;17.038;2022-09-03T01:19:26;2.42;;;1.48;;
52354;SDS011;38286;51.156;17.038;2022-09-03T01:32:39;6.43;;;1.80;;
52354;SDS011;38286;51.156;17.038;2022-09-03T01:38:00;2.92;;;1.67;;
52354;SDS011;38286;51.156;17.038;2022-09-03T01:46:15;3.90;;;1.95;;
52354;SDS011;38286;51.156;17.038;2022-09-03T01:48:52;3.38;;;1.50;;
52354;SDS011;38286;51.156;17.038;2022-09-03T01:51:29;3.22;;;1.88;;
52354;SDS011;38286;51.156;17.038;2022-09-03T01:59:54;3.53;;;1.85;;
52354;SDS011;38286;51.156;17.038;2022-09-03T02:02:24;5.05;;;2.10;;
52354;SDS011;38286;51.156;17.038;2022-09-03T02:05:04;3.05;;;1.85;;
52354;SDS011;38286;51.156;17.038;2022-09-03T02:07:40;4.78;;;1.65;;
52354;SDS011;38286;51.156;17.038;2022-09-03T02:10:08;2.78;;;1.85;;
52354;SDS011;38286;51.156;17.038;2022-09-03T02:12:37;5.03;;;1.90;;
52354;SDS011;38286;51.156;17.038;2022-09-03T02:15:09;7.25;;;2.10;;
52354;SDS011;38286;51.156;17.038;2022-09-03T02:17:36;4.60;;;2.10;;
52354;SDS011;38286;51.156;17.038;2022-09-03T02:20:03;4.70;;;1.75;;
52354;SDS011;38286;51.156;17.038;2022-09-03T02:22:31;2.50;;;1.80;;
52354;SDS011;38286;51.156;17.038;2022-09-03T02:24:57;3.38;;;2.20;;
52354;SDS011;38286;51.156;17.038;2022-09-03T02:27:24;5.72;;;2.20;;
52354;SDS011;38286;51.156;17.038;2022-09-03T02:29:49;6.75;;;1.90;;
52354;SDS011;38286;51.156;17.038;2022-09-03T02:32:14;3.35;;;1.90;;
52354;SDS011;38286;51.156;17.038;2022-09-03T02:34:41;4.38;;;1.67;;
52354;SDS011;38286;51.156;17.038;2022-09-03T02:37:13;6.55;;;2.03;;
52354;SDS011;38286;51.156;17.038;2022-09-03T02:39:39;5.40;;;2.22;;
52354;SDS011;38286;51.156;17.038;2022-09-03T02:42:05;3.97;;;1.83;;
52354;SDS011;38286;51.156;17.038;2022-09-03T02:44:32;2.47;;;2.10;;
52354;SDS011;38286;51.156;17.038;2022-09-03T02:47:00;3.28;;;1.95;;
52354;SDS011;38286;51.156;17.038;2022-09-03T02:49:28;3.42;;;1.90;;
52354;SDS011;38286;51.156;17.038;2022-09-03T02:52:02;2.75;;;1.98;;
52354;SDS011;38286;51.156;17.038;2022-09-03T02:54:31;2.95;;;1.77;;
52354;SDS011;38286;51.156;17.038;2022-09-03T02:57:00;6.57;;;2.00;;
52354;SDS011;38286;51.156;17.038;2022-09-03T02:59:26;4.70;;;2.05;;
52354;SDS011;38286;51.156;17.038;2022-09-03T03:01:54;3.38;;;1.85;;
52354;SDS011;38286;51.156;17.038;2022-09-03T03:04:20;4.18;;;2.10;;
52354;SDS011;38286;51.156;17.038;2022-09-03T03:06:46;2.47;;;1.90;;
52354;SDS011;38286;51.156;17.038;2022-09-03T03:09:15;4.65;;;2.08;;
52354;SDS011;38286;51.156;17.038;2022-09-03T03:11:41;3.47;;;1.80;;
52354;SDS011;38286;51.156;17.038;2022-09-03T03:14:07;5.35;;;2.05;;
52354;SDS011;38286;51.156;17.038;2022-09-03T03:16:32;4.72;;;1.98;;
52354;SDS011;38286;51.156;17.038;2022-09-03T03:18:58;4.85;;;2.17;;
52354;SDS011;38286;51.156;17.038;2022-09-03T03:21:24;5.07;;;2.13;;
52354;SDS011;38286;51.156;17.038;2022-09-03T03:23:50;5.75;;;1.98;;
52354;SDS011;38286;51.156;17.038;2022-09-03T03:26:16;3.55;;;2.22;;
52354;SDS011;38286;51.156;17.038;2022-09-03T03:28:43;5.78;;;2.30;;
52354;SDS011;38286;51.156;17.038;2022-09-03T03:31:10;4.40;;;2.05;;
52354;SDS011;38286;51.156;17.038;2022-09-03T03:33:40;5.53;;;2.00;;
52354;SDS011;38286;51.156;17.038;2022-09-03T03:36:07;4.72;;;2.28;;
52354;SDS011;38286;51.156;17.038;2022-09-03T03:38:34;4.32;;;2.25;;
52354;SDS011;38286;51.156;17.038;2022-09-03T03:43:40;3.83;;;1.98;;
52354;SDS011;38286;51.156;17.038;2022-09-03T03:46:05;5.68;;;2.30;;
52354;SDS011;38286;51.156;17.038;2022-09-03T03:48:31;6.28;;;2.53;;
52354;SDS011;38286;51.156;17.038;2022-09-03T03:51:00;3.72;;;1.98;;
52354;SDS011;38286;51.156;17.038;2022-09-03T03:53:28;8.82;;;2.58;;
52354;SDS011;38286;51.156;17.038;2022-09-03T03:55:58;6.60;;;2.15;;
52354;SDS011;38286;51.156;17.038;2022-09-03T03:58:26;7.00;;;2.65;;
52354;SDS011;38286;51.156;17.038;2022-09-03T04:00:53;12.25;;;2.28;;
52354;SDS011;38286;51.156;17.038;2022-09-03T04:03:18;7.68;;;2.40;;
52354;SDS011;38286;51.156;17.038;2022-09-03T04:05:54;5.20;;;2.20;;
52354;SDS011;38286;51.156;17.038;2022-09-03T04:08:21;4.15;;;2.20;;
52354;SDS011;38286;51.156;17.038;2022-09-03T04:10:47;5.03;;;2.22;;
52354;SDS011;38286;51.156;17.038;2022-09-03T04:13:13;4.22;;;2.30;;
52354;SDS011;38286;51.156;17.038;2022-09-03T04:15:38;8.85;;;2.60;;
52354;SDS011;38286;51.156;17.038;2022-09-03T04:18:04;4.00;;;2.28;;
52354;SDS011;38286;51.156;17.038;2022-09-03T04:20:30;4.78;;;2.42;;
52354;SDS011;38286;51.156;17.038;2022-09-03T04:22:59;5.38;;;2.28;;
52354;SDS011;38286;51.156;17.038;2022-09-03T04:25:25;7.10;;;2.50;;
52354;SDS011;38286;51.156;17.038;2022-09-03T04:27:51;4.15;;;2.30;;
52354;SDS011;38286;51.156;17.038;2022-09-03T04:30:17;10.35;;;2.50;;
52354;SDS011;38286;51.156;17.038;2022-09-03T04:32:43;7.90;;;2.58;;
52354;SDS011;38286;51.156;17.038;2022-09-03T04:35:18;5.05;;;2.67;;
52354;SDS011;38286;51.156;17.038;2022-09-03T04:37:46;7.55;;;2.65;;
52354;SDS011;38286;51.156;17.038;2022-09-03T04:40:12;4.57;;;2.50;;
52354;SDS011;38286;51.156;17.038;2022-09-03T04:42:37;10.82;;;2.60;;
52354;SDS011;38286;51.156;17.038;2022-09-03T04:45:03;7.20;;;2.95;;
52354;SDS011;38286;51.156;17.038;2022-09-03T04:47:30;6.95;;;2.35;;
52354;SDS011;38286;51.156;17.038;2022-09-03T04:49:55;5.57;;;2.78;;
52354;SDS011;38286;51.156;17.038;2022-09-03T04:52:21;4.90;;;2.47;;
52354;SDS011;38286;51.156;17.038;2022-09-03T04:54:46;5.28;;;2.70;;
52354;SDS011;38286;51.156;17.038;2022-09-03T04:57:12;6.63;;;2.42;;
52354;SDS011;38286;51.156;17.038;2022-09-03T04:59:38;6.07;;;2.53;;
52354;SDS011;38286;51.156;17.038;2022-09-03T05:02:05;6.60;;;3.13;;
52354;SDS011;38286;51.156;17.038;2022-09-03T05:04:31;7.30;;;3.00;;
52354;SDS011;38286;51.156;17.038;2022-09-03T05:06:57;6.75;;;3.08;;
52354;SDS011;38286;51.156;17.038;2022-09-03T05:09:22;5.80;;;2.97;;
52354;SDS011;38286;51.156;17.038;2022-09-03T05:11:48;9.70;;;2.95;;
52354;SDS011;38286;51.156;17.038;2022-09-03T05:14:13;7.50;;;3.25;;
52354;SDS011;38286;51.156;17.038;2022-09-03T05:16:39;4.32;;;2.83;;
52354;SDS011;38286;51.156;17.038;2022-09-03T05:19:04;5.88;;;2.92;;
52354;SDS011;38286;51.156;17.038;2022-09-03T05:21:32;7.68;;;3.53;;
52354;SDS011;38286;51.156;17.038;2022-09-03T05:24:00;6.03;;;2.90;;
52354;SDS011;38286;51.156;17.038;2022-09-03T05:26:26;8.88;;;3.60;;
52354;SDS011;38286;51.156;17.038;2022-09-03T05:28:57;15.68;;;5.82;;
52354;SDS011;38286;51.156;17.038;2022-09-03T05:31:25;13.35;;;5.43;;
52354;SDS011;38286;51.156;17.038;2022-09-03T05:33:53;10.77;;;5.07;;
52354;SDS011;38286;51.156;17.038;2022-09-03T05:36:22;6.68;;;3.50;;
52354;SDS011;38286;51.156;17.038;2022-09-03T05:38:48;6.05;;;3.03;;
52354;SDS011;38286;51.156;17.038;2022-09-03T05:41:15;6.00;;;3.17;;
52354;SDS011;38286;51.156;17.038;2022-09-03T05:43:42;11.25;;;3.20;;
52354;SDS011;38286;51.156;17.038;2022-09-03T05:46:12;5.22;;;2.70;;
52354;SDS011;38286;51.156;17.038;2022-09-03T05:48:39;6.55;;;2.83;;
52354;SDS011;38286;51.156;17.038;2022-09-03T05:53:35;5.90;;;2.75;;
52354;SDS011;38286;51.156;17.038;2022-09-03T05:56:03;8.32;;;2.92;;
52354;SDS011;38286;51.156;17.038;2022-09-03T05:58:40;5.57;;;2.50;;
52354;SDS011;38286;51.156;17.038;2022-09-03T06:01:12;4.82;;;2.30;;
52354;SDS011;38286;51.156;17.038;2022-09-03T06:03:40;5.05;;;2.30;;
52354;SDS011;38286;51.156;17.038;2022-09-03T06:06:06;4.70;;;2.30;;
52354;SDS011;38286;51.156;17.038;2022-09-03T06:08:33;5.93;;;2.53;;
52354;SDS011;38286;51.156;17.038;2022-09-03T06:11:00;7.30;;;2.83;;
52354;SDS011;38286;51.156;17.038;2022-09-03T06:13:27;9.82;;;2.53;;
52354;SDS011;38286;51.156;17.038;2022-09-03T06:15:57;9.77;;;2.47;;
52354;SDS011;38286;51.156;17.038;2022-09-03T06:18:23;6.38;;;2.80;;
52354;SDS011;38286;51.156;17.038;2022-09-03T06:20:54;4.80;;;2.45;;
52354;SDS011;38286;51.156;17.038;2022-09-03T06:23:20;5.75;;;2.00;;
52354;SDS011;38286;51.156;17.038;2022-09-03T06:25:46;4.88;;;2.42;;
52354;SDS011;38286;51.156;17.038;2022-09-03T06:28:12;4.43;;;2.30;;
52354;SDS011;38286;51.156;17.038;2022-09-03T06:30:38;5.18;;;2.25;;
52354;SDS011;38286;51.156;17.038;2022-09-03T06:33:03;4.72;;;2.28;;
52354;SDS011;38286;51.156;17.038;2022-09-03T06:35:29;5.43;;;2.28;;
52354;SDS011;38286;51.156;17.038;2022-09-03T06:37:55;4.35;;;2.47;;
52354;SDS011;38286;51.156;17.038;2022-09-03T06:40:20;3.92;;;2.13;;
52354;SDS011;38286;51.156;17.038;2022-09-03T06:42:54;7.00;;;2.08;;
52354;SDS011;38286;51.156;17.038;2022-09-03T06:45:23;4.97;;;2.05;;
52354;SDS011;38286;51.156;17.038;2022-09-03T06:47:49;4.25;;;2.20;;
52354;SDS011;38286;51.156;17.038;2022-09-03T06:50:14;5.47;;;2.00;;
52354;SDS011;38286;51.156;17.038;2022-09-03T06:52:42;11.43;;;4.85;;
52354;SDS011;38286;51.156;17.038;2022-09-03T06:55:08;5.55;;;2.45;;
52354;SDS011;38286;51.156;17.038;2022-09-03T06:57:33;3.35;;;1.95;;
52354;SDS011;38286;51.156;17.038;2022-09-03T06:59:59;5.90;;;2.15;;
52354;SDS011;38286;51.156;17.038;2022-09-03T07:02:27;3.65;;;1.88;;
52354;SDS011;38286;51.156;17.038;2022-09-03T07:04:53;4.78;;;2.00;;
52354;SDS011;38286;51.156;17.038;2022-09-03T07:07:18;19.27;;;3.03;;
52354;SDS011;38286;51.156;17.038;2022-09-03T07:09:44;6.63;;;2.53;;
52354;SDS011;38286;51.156;17.038;2022-09-03T07:12:09;5.78;;;2.30;;
52354;SDS011;38286;51.156;17.038;2022-09-03T07:14:36;3.17;;;1.80;;
52354;SDS011;38286;51.156;17.038;2022-09-03T07:17:01;3.03;;;2.00;;
52354;SDS011;38286;51.156;17.038;2022-09-03T07:19:27;4.88;;;2.17;;
52354;SDS011;38286;51.156;17.038;2022-09-03T07:21:53;6.85;;;2.28;;
52354;SDS011;38286;51.156;17.038;2022-09-03T07:24:19;5.60;;;2.40;;
52354;SDS011;38286;51.156;17.038;2022-09-03T07:26:46;5.72;;;2.40;;
52354;SDS011;38286;51.156;17.038;2022-09-03T07:29:13;4.55;;;2.05;;
52354;SDS011;38286;51.156;17.038;2022-09-03T07:31:41;10.82;;;2.20;;
52354;SDS011;38286;51.156;17.038;2022-09-03T07:34:08;4.95;;;2.05;;
52354;SDS011;38286;51.156;17.038;2022-09-03T07:36:36;4.53;;;2.20;;
52354;SDS011;38286;51.156;17.038;2022-09-03T07:39:04;6.18;;;1.95;;
52354;SDS011;38286;51.156;17.038;2022-09-03T07:41:30;5.10;;;2.40;;
52354;SDS011;38286;51.156;17.038;2022-09-03T07:43:58;5.60;;;2.30;;
52354;SDS011;38286;51.156;17.038;2022-09-03T07:46:29;3.53;;;2.10;;
52354;SDS011;38286;51.156;17.038;2022-09-03T07:48:57;4.75;;;1.98;;
52354;SDS011;38286;51.156;17.038;2022-09-03T07:51:24;3.60;;;2.30;;
52354;SDS011;38286;51.156;17.038;2022-09-03T07:53:51;5.05;;;2.33;;
52354;SDS011;38286;51.156;17.038;2022-09-03T07:56:18;6.03;;;2.38;;
52354;SDS011;38286;51.156;17.038;2022-09-03T07:58:44;8.23;;;2.10;;
52354;SDS011;38286;51.156;17.038;2022-09-03T08:01:11;4.60;;;2.55;;
52354;SDS011;38286;51.156;17.038;2022-09-03T08:03:38;5.03;;;2.70;;
52354;SDS011;38286;51.156;17.038;2022-09-03T08:06:07;4.90;;;2.45;;
52354;SDS011;38286;51.156;17.038;2022-09-03T08:08:34;5.30;;;2.50;;
52354;SDS011;38286;51.156;17.038;2022-09-03T08:11:08;8.05;;;2.95;;
52354;SDS011;38286;51.156;17.038;2022-09-03T08:13:43;5.30;;;2.13;;
52354;SDS011;38286;51.156;17.038;2022-09-03T08:16:14;5.75;;;3.28;;
52354;SDS011;38286;51.156;17.038;2022-09-03T08:18:42;4.90;;;2.70;;
52354;SDS011;38286;51.156;17.038;2022-09-03T08:21:18;7.25;;;2.40;;
52354;SDS011;38286;51.156;17.038;2022-09-03T08:23:45;5.07;;;2.55;;
52354;SDS011;38286;51.156;17.038;2022-09-03T08:26:12;5.10;;;2.53;;
52354;SDS011;38286;51.156;17.038;2022-09-03T08:28:39;5.53;;;2.70;;
52354;SDS011;38286;51.156;17.038;2022-09-03T08:31:10;4.43;;;2.30;;
52354;SDS011;38286;51.156;17.038;2022-09-03T08:33:44;6.80;;;2.65;;
52354;SDS011;38286;51.156;17.038;2022-09-03T08:36:15;5.65;;;2.70;;
52354;SDS011;38286;51.156;17.038;2022-09-03T08:38:43;5.35;;;2.60;;
52354;SDS011;38286;51.156;17.038;2022-09-03T08:46:16;7.45;;;2.95;;
52354;SDS011;38286;51.156;17.038;2022-09-03T08:48:42;4.78;;;2.40;;
52354;SDS011;38286;51.156;17.038;2022-09-03T08:51:08;3.95;;;2.67;;
52354;SDS011;38286;51.156;17.038;2022-09-03T08:53:56;4.28;;;2.70;;
52354;SDS011;38286;51.156;17.038;2022-09-03T08:56:24;5.30;;;2.45;;
52354;SDS011;38286;51.156;17.038;2022-09-03T08:58:52;5.82;;;2.78;;
52354;SDS011;38286;51.156;17.038;2022-09-03T09:12:27;7.25;;;3.25;;
52354;SDS011;38286;51.156;17.038;2022-09-03T09:17:30;6.40;;;3.20;;
52354;SDS011;38286;51.156;17.038;2022-09-03T09:20:09;4.72;;;2.40;;
52354;SDS011;38286;51.156;17.038;2022-09-03T09:25:24;8.13;;;2.95;;
52354;SDS011;38286;51.156;17.038;2022-09-03T09:27:52;5.60;;;2.70;;
52354;SDS011;38286;51.156;17.038;2022-09-03T09:30:22;6.22;;;3.17;;
52354;SDS011;38286;51.156;17.038;2022-09-03T09:32:47;7.13;;;2.70;;
52354;SDS011;38286;51.156;17.038;2022-09-03T09:35:13;3.75;;;2.10;;
52354;SDS011;38286;51.156;17.038;2022-09-03T09:37:53;3.95;;;2.28;;
52354;SDS011;38286;51.156;17.038;2022-09-03T09:40:36;7.15;;;3.53;;
52354;SDS011;38286;51.156;17.038;2022-09-03T09:45:37;6.50;;;2.85;;
52354;SDS011;38286;51.156;17.038;2022-09-03T09:48:09;6.10;;;2.90;;
52354;SDS011;38286;51.156;17.038;2022-09-03T09:50:40;4.82;;;2.55;;
52354;SDS011;38286;51.156;17.038;2022-09-03T09:53:07;7.50;;;4.10;;
52354;SDS011;38286;51.156;17.038;2022-09-03T09:55:48;7.15;;;2.83;;
52354;SDS011;38286;51.156;17.038;2022-09-03T09:58:25;5.68;;;3.10;;
52354;SDS011;38286;51.156;17.038;2022-09-03T10:00:55;5.18;;;2.53;;
52354;SDS011;38286;51.156;17.038;2022-09-03T10:03:25;4.90;;;2.30;;
52354;SDS011;38286;51.156;17.038;2022-09-03T10:06:04;5.82;;;2.60;;
52354;SDS011;38286;51.156;17.038;2022-09-03T10:08:49;6.40;;;2.50;;
52354;SDS011;38286;51.156;17.038;2022-09-03T10:11:16;3.92;;;2.65;;
52354;SDS011;38286;51.156;17.038;2022-09-03T10:13:43;5.60;;;2.78;;
52354;SDS011;38286;51.156;17.038;2022-09-03T10:16:17;8.55;;;2.78;;
52354;SDS011;38286;51.156;17.038;2022-09-03T10:21:29;6.25;;;2.53;;
52354;SDS011;38286;51.156;17.038;2022-09-03T10:26:44;23.88;;;3.60;;
52354;SDS011;38286;51.156;17.038;2022-09-03T10:29:11;6.55;;;2.67;;
52354;SDS011;38286;51.156;17.038;2022-09-03T10:34:48;12.93;;;2.63;;
52354;SDS011;38286;51.156;17.038;2022-09-03T10:37:37;4.75;;;2.55;;
52354;SDS011;38286;51.156;17.038;2022-09-03T10:46:25;5.70;;;2.45;;
52354;SDS011;38286;51.156;17.038;2022-09-03T11:00:38;5.32;;;2.03;;
52354;SDS011;38286;51.156;17.038;2022-09-03T11:06:11;4.18;;;2.40;;
52354;SDS011;38286;51.156;17.038;2022-09-03T11:08:41;6.85;;;2.70;;
52354;SDS011;38286;51.156;17.038;2022-09-03T11:11:19;4.68;;;2.33;;
52354;SDS011;38286;51.156;17.038;2022-09-03T11:13:52;5.65;;;2.42;;
52354;SDS011;38286;51.156;17.038;2022-09-03T11:16:24;5.57;;;2.72;;
52354;SDS011;38286;51.156;17.038;2022-09-03T11:18:57;5.35;;;2.00;;
52354;SDS011;38286;51.156;17.038;2022-09-03T11:21:27;5.80;;;2.43;;
52354;SDS011;38286;51.156;17.038;2022-09-03T11:24:06;4.47;;;2.35;;
52354;SDS011;38286;51.156;17.038;2022-09-03T11:29:33;13.77;;;3.08;;
52354;SDS011;38286;51.156;17.038;2022-09-03T11:32:17;4.32;;;1.70;;
52354;SDS011;38286;51.156;17.038;2022-09-03T11:34:52;3.42;;;2.13;;
52354;SDS011;38286;51.156;17.038;2022-09-03T11:37:28;4.47;;;2.20;;
52354;SDS011;38286;51.156;17.038;2022-09-03T11:39:56;3.72;;;2.47;;
52354;SDS011;38286;51.156;17.038;2022-09-03T11:42:34;6.38;;;2.88;;
52354;SDS011;38286;51.156;17.038;2022-09-03T11:47:54;6.25;;;2.45;;
52354;SDS011;38286;51.156;17.038;2022-09-03T11:50:22;5.45;;;2.45;;
52354;SDS011;38286;51.156;17.038;2022-09-03T11:52:50;3.40;;;1.95;;
52354;SDS011;38286;51.156;17.038;2022-09-03T11:55:24;5.22;;;2.50;;
52354;SDS011;38286;51.156;17.038;2022-09-03T11:57:58;4.82;;;2.28;;
52354;SDS011;38286;51.156;17.038;2022-09-03T12:00:35;3.95;;;2.40;;
52354;SDS011;38286;51.156;17.038;2022-09-03T12:03:02;4.55;;;2.17;;
52354;SDS011;38286;51.156;17.038;2022-09-03T12:05:37;6.07;;;2.60;;
52354;SDS011;38286;51.156;17.038;2022-09-03T12:11:23;4.53;;;2.47;;
52354;SDS011;38286;51.156;17.038;2022-09-03T12:14:18;6.63;;;2.60;;
52354;SDS011;38286;51.156;17.038;2022-09-03T12:16:58;7.55;;;3.05;;
52354;SDS011;38286;51.156;17.038;2022-09-03T12:22:13;6.85;;;2.95;;
52354;SDS011;38286;51.156;17.038;2022-09-03T12:24:40;7.07;;;2.67;;
52354;SDS011;38286;51.156;17.038;2022-09-03T12:27:09;5.10;;;2.58;;
52354;SDS011;38286;51.156;17.038;2022-09-03T12:29:36;7.07;;;2.97;;
52354;SDS011;38286;51.156;17.038;2022-09-03T12:32:07;4.78;;;2.50;;
52354;SDS011;38286;51.156;17.038;2022-09-03T12:34:34;7.28;;;3.00;;
52354;SDS011;38286;51.156;17.038;2022-09-03T12:36:59;4.95;;;2.33;;
52354;SDS011;38286;51.156;17.038;2022-09-03T12:39:26;3.67;;;2.35;;
52354;SDS011;38286;51.156;17.038;2022-09-03T12:42:03;3.55;;;2.22;;
52354;SDS011;38286;51.156;17.038;2022-09-03T12:46:59;7.63;;;2.38;;
52354;SDS011;38286;51.156;17.038;2022-09-03T12:49:33;10.30;;;2.85;;
52354;SDS011;38286;51.156;17.038;2022-09-03T12:52:01;5.90;;;2.55;;
52354;SDS011;38286;51.156;17.038;2022-09-03T12:54:30;8.05;;;3.08;;
52354;SDS011;38286;51.156;17.038;2022-09-03T12:56:56;4.68;;;2.25;;
52354;SDS011;38286;51.156;17.038;2022-09-03T12:59:23;4.43;;;1.88;;
52354;SDS011;38286;51.156;17.038;2022-09-03T13:01:52;22.30;;;2.78;;
52354;SDS011;38286;51.156;17.038;2022-09-03T13:04:21;3.92;;;2.17;;
52354;SDS011;38286;51.156;17.038;2022-09-03T13:07:09;11.23;;;2.40;;
52354;SDS011;38286;51.156;17.038;2022-09-03T13:09:38;7.07;;;2.17;;
52354;SDS011;38286;51.156;17.038;2022-09-03T13:12:05;4.40;;;2.13;;
52354;SDS011;38286;51.156;17.038;2022-09-03T13:14:41;3.75;;;2.00;;
52354;SDS011;38286;51.156;17.038;2022-09-03T13:28:19;6.22;;;2.00;;
52354;SDS011;38286;51.156;17.038;2022-09-03T13:31:27;4.53;;;2.35;;
52354;SDS011;38286;51.156;17.038;2022-09-03T13:34:04;3.22;;;2.35;;
52354;SDS011;38286;51.156;17.038;2022-09-03T13:37:34;5.03;;;2.47;;
52354;SDS011;38286;51.156;17.038;2022-09-03T13:39:45;6.97;;;2.35;;
52354;SDS011;38286;51.156;17.038;2022-09-03T13:42:16;6.45;;;2.30;;
52354;SDS011;38286;51.156;17.038;2022-09-03T13:44:45;4.93;;;2.70;;
52354;SDS011;38286;51.156;17.038;2022-09-03T13:52:59;5.05;;;2.30;;
52354;SDS011;38286;51.156;17.038;2022-09-03T13:55:48;3.42;;;2.35;;
52354;SDS011;38286;51.156;17.038;2022-09-03T14:04:00;4.32;;;2.95;;
52354;SDS011;38286;51.156;17.038;2022-09-03T14:12:27;6.70;;;2.70;;
52354;SDS011;38286;51.156;17.038;2022-09-03T14:15:02;5.82;;;2.70;;
52354;SDS011;38286;51.156;17.038;2022-09-03T14:17:54;4.75;;;2.75;;
52354;SDS011;38286;51.156;17.038;2022-09-03T14:20:30;4.13;;;2.70;;
52354;SDS011;38286;51.156;17.038;2022-09-03T14:26:06;4.13;;;2.47;;
52354;SDS011;38286;51.156;17.038;2022-09-03T14:28:56;5.75;;;2.40;;
52354;SDS011;38286;51.156;17.038;2022-09-03T14:34:27;7.20;;;2.90;;
52354;SDS011;38286;51.156;17.038;2022-09-03T14:40:30;7.18;;;3.80;;
52354;SDS011;38286;51.156;17.038;2022-09-03T14:46:08;7.25;;;3.05;;
52354;SDS011;38286;51.156;17.038;2022-09-03T14:57:13;3.78;;;2.55;;
52354;SDS011;38286;51.156;17.038;2022-09-03T14:59:54;7.38;;;2.72;;
52354;SDS011;38286;51.156;17.038;2022-09-03T15:10:24;5.80;;;3.13;;
52354;SDS011;38286;51.156;17.038;2022-09-03T15:15:51;3.63;;;2.13;;
52354;SDS011;38286;51.156;17.038;2022-09-03T15:18:49;5.72;;;2.90;;
52354;SDS011;38286;51.156;17.038;2022-09-03T15:24:09;5.13;;;2.80;;
52354;SDS011;38286;51.156;17.038;2022-09-03T15:26:54;4.15;;;2.70;;
52354;SDS011;38286;51.156;17.038;2022-09-03T15:37:38;4.93;;;3.00;;
52354;SDS011;38286;51.156;17.038;2022-09-03T15:42:51;3.97;;;2.97;;
52354;SDS011;38286;51.156;17.038;2022-09-03T15:45:28;4.97;;;2.83;;
52354;SDS011;38286;51.156;17.038;2022-09-03T15:51:15;3.47;;;3.00;;
52354;SDS011;38286;51.156;17.038;2022-09-03T15:56:33;4.15;;;2.80;;
52354;SDS011;38286;51.156;17.038;2022-09-03T16:07:17;6.68;;;3.10;;
52354;SDS011;38286;51.156;17.038;2022-09-03T16:12:35;5.20;;;2.80;;
52354;SDS011;38286;51.156;17.038;2022-09-03T16:15:07;5.78;;;3.08;;
52354;SDS011;38286;51.156;17.038;2022-09-03T16:17:43;5.43;;;3.33;;
52354;SDS011;38286;51.156;17.038;2022-09-03T16:25:28;7.53;;;3.20;;
52354;SDS011;38286;51.156;17.038;2022-09-03T16:33:10;5.32;;;3.20;;
52354;SDS011;38286;51.156;17.038;2022-09-03T16:36:02;3.78;;;2.58;;
52354;SDS011;38286;51.156;17.038;2022-09-03T16:38:42;8.05;;;3.17;;
52354;SDS011;38286;51.156;17.038;2022-09-03T16:41:16;4.55;;;3.05;;
52354;SDS011;38286;51.156;17.038;2022-09-03T16:49:04;5.72;;;3.33;;
52354;SDS011;38286;51.156;17.038;2022-09-03T16:57:19;9.30;;;3.53;;
52354;SDS011;38286;51.156;17.038;2022-09-03T16:59:50;7.32;;;3.75;;
52354;SDS011;38286;51.156;17.038;2022-09-03T17:17:03;5.75;;;3.30;;
52354;SDS011;38286;51.156;17.038;2022-09-03T17:23:15;4.95;;;3.50;;
52354;SDS011;38286;51.156;17.038;2022-09-03T17:25:53;7.05;;;4.00;;
52354;SDS011;38286;51.156;17.038;2022-09-03T17:28:31;7.60;;;3.90;;
52354;SDS011;38286;51.156;17.038;2022-09-03T17:31:22;8.95;;;3.58;;
52354;SDS011;38286;51.156;17.038;2022-09-03T17:36:36;5.20;;;4.20;;
52354;SDS011;38286;51.156;17.038;2022-09-03T17:39:05;7.57;;;4.50;;
52354;SDS011;38286;51.156;17.038;2022-09-03T17:41:47;6.90;;;4.10;;
52354;SDS011;38286;51.156;17.038;2022-09-03T17:46:53;8.32;;;5.30;;
52354;SDS011;38286;51.156;17.038;2022-09-03T17:49:25;10.80;;;4.47;;
52354;SDS011;38286;51.156;17.038;2022-09-03T17:51:58;12.05;;;4.72;;
52354;SDS011;38286;51.156;17.038;2022-09-03T17:54:33;10.38;;;4.95;;
52354;SDS011;38286;51.156;17.038;2022-09-03T17:57:04;9.55;;;4.50;;
52354;SDS011;38286;51.156;17.038;2022-09-03T18:04:52;9.65;;;4.68;;
52354;SDS011;38286;51.156;17.038;2022-09-03T18:10:38;9.60;;;4.50;;
52354;SDS011;38286;51.156;17.038;2022-09-03T18:13:21;11.48;;;5.10;;
52354;SDS011;38286;51.156;17.038;2022-09-03T18:16:12;10.85;;;5.15;;
52354;SDS011;38286;51.156;17.038;2022-09-03T18:18:44;10.65;;;5.10;;
52354;SDS011;38286;51.156;17.038;2022-09-03T18:21:13;8.57;;;5.00;;
52354;SDS011;38286;51.156;17.038;2022-09-03T18:24:10;10.05;;;5.68;;
52354;SDS011;38286;51.156;17.038;2022-09-03T18:27:15;41.28;;;21.58;;
52354;SDS011;38286;51.156;17.038;2022-09-03T18:30:04;28.63;;;16.40;;
52354;SDS011;38286;51.156;17.038;2022-09-03T18:32:50;34.38;;;17.48;;
52354;SDS011;38286;51.156;17.038;2022-09-03T18:35:34;28.17;;;16.38;;
52354;SDS011;38286;51.156;17.038;2022-09-03T18:38:26;26.20;;;12.38;;
52354;SDS011;38286;51.156;17.038;2022-09-03T18:50:16;19.48;;;7.90;;
52354;SDS011;38286;51.156;17.038;2022-09-03T18:53:13;15.32;;;7.45;;
52354;SDS011;38286;51.156;17.038;2022-09-03T19:05:33;13.50;;;7.57;;
52354;SDS011;38286;51.156;17.038;2022-09-03T19:08:31;15.40;;;8.65;;
52354;SDS011;38286;51.156;17.038;2022-09-03T19:14:56;21.30;;;11.93;;
52354;SDS011;38286;51.156;17.038;2022-09-03T19:23:59;13.45;;;7.10;;
52354;SDS011;38286;51.156;17.038;2022-09-03T19:26:51;11.77;;;6.75;;
52354;SDS011;38286;51.156;17.038;2022-09-03T19:30:09;14.13;;;6.75;;
52354;SDS011;38286;51.156;17.038;2022-09-03T19:33:08;17.88;;;9.23;;
52354;SDS011;38286;51.156;17.038;2022-09-03T19:54:27;11.13;;;6.05;;
52354;SDS011;38286;51.156;17.038;2022-09-03T19:57:12;9.88;;;6.15;;
52354;SDS011;38286;51.156;17.038;2022-09-03T19:59:59;13.88;;;6.78;;
52354;SDS011;38286;51.156;17.038;2022-09-03T20:02:45;10.83;;;6.47;;
52354;SDS011;38286;51.156;17.038;2022-09-03T20:05:31;12.25;;;6.40;;
52354;SDS011;38286;51.156;17.038;2022-09-03T20:08:16;12.10;;;6.50;;
52354;SDS011;38286;51.156;17.038;2022-09-03T20:11:01;13.25;;;6.55;;
52354;SDS011;38286;51.156;17.038;2022-09-03T20:13:27;11.10;;;6.47;;
52354;SDS011;38286;51.156;17.038;2022-09-03T20:16:22;9.80;;;6.45;;